sensor_id;sensor_type;location;lat;lon;timestamp;temperature;humidity
7413;DHT22;3748;48.136;11.538;2023-02-25T00:02:20;3.20;99.90
7413;DHT22;3748;48.136;11.538;2023-02-25T07:40:17;1.60;99.90
7413;DHT22;3748;48.136;11.538;2023-02-25T07:57:29;1.90;99.90
7413;DHT22;3748;48.136;11.538;2023-02-25T08:04:52;2.00;99.90
7413;DHT22;3748;48.136;11.538;2023-02-25T08:07:24;1.90;99.90
7413;DHT22;3748;48.136;11.538;2023-02-25T08:09:51;1.90;99.90
7413;DHT22;3748;48.136;11.538;2023-02-25T08:12:17;1.90;99.90
7413;DHT22;3748;48.136;11.538;2023-02-25T08:14:44;1.90;99.90
7413;DHT22;3748;48.136;11.538;2023-02-25T08:22:07;2.20;99.90
7413;DHT22;3748;48.136;11.538;2023-02-25T08:24:36;2.00;99.90
7413;DHT22;3748;48.136;11.538;2023-02-25T08:29:31;2.00;99.90
7413;DHT22;3748;48.136;11.538;2023-02-25T08:31:58;1.90;99.90
7413;DHT22;3748;48.136;11.538;2023-02-25T08:34:27;1.90;99.90
7413;DHT22;3748;48.136;11.538;2023-02-25T08:39:22;2.10;99.90
7413;DHT22;3748;48.136;11.538;2023-02-25T08:41:49;2.10;99.90
7413;DHT22;3748;48.136;11.538;2023-02-25T08:44:15;2.20;99.90
7413;DHT22;3748;48.136;11.538;2023-02-25T09:01:37;2.10;99.90
7413;DHT22;3748;48.136;11.538;2023-02-25T09:04:11;2.10;99.90
7413;DHT22;3748;48.136;11.538;2023-02-25T09:14:03;2.50;99.90
7413;DHT22;3748;48.136;11.538;2023-02-25T09:16:30;2.40;99.90
7413;DHT22;3748;48.136;11.538;2023-02-25T09:18:57;2.50;99.90
7413;DHT22;3748;48.136;11.538;2023-02-25T09:21:24;2.40;99.90
7413;DHT22;3748;48.136;11.538;2023-02-25T09:23:52;2.60;99.90
7413;DHT22;3748;48.136;11.538;2023-02-25T09:26:20;2.90;99.90
7413;DHT22;3748;48.136;11.538;2023-02-25T09:28:47;2.80;99.90
7413;DHT22;3748;48.136;11.538;2023-02-25T09:31:17;2.70;99.90
7413;DHT22;3748;48.136;11.538;2023-02-25T09:36:20;2.60;99.90
7413;DHT22;3748;48.136;11.538;2023-02-25T09:38:49;2.40;99.90
7413;DHT22;3748;48.136;11.538;2023-02-25T09:41:26;2.40;99.90
7413;DHT22;3748;48.136;11.538;2023-02-25T09:44:01;2.70;99.90
7413;DHT22;3748;48.136;11.538;2023-02-25T09:46:31;3.10;99.90
7413;DHT22;3748;48.136;11.538;2023-02-25T09:49:01;3.20;99.90
7413;DHT22;3748;48.136;11.538;2023-02-25T09:51:32;3.10;99.90
7413;DHT22;3748;48.136;11.538;2023-02-25T09:54:12;3.10;99.90
7413;DHT22;3748;48.136;11.538;2023-02-25T09:56:41;3.60;99.90
7413;DHT22;3748;48.136;11.538;2023-02-25T09:59:13;3.70;99.90
7413;DHT22;3748;48.136;11.538;2023-02-25T10:01:44;4.20;99.90
7413;DHT22;3748;48.136;11.538;2023-02-25T10:04:15;3.90;99.90
7413;DHT22;3748;48.136;11.538;2023-02-25T10:06:45;3.80;99.90
7413;DHT22;3748;48.136;11.538;2023-02-25T10:11:52;2.80;99.90
7413;DHT22;3748;48.136;11.538;2023-02-25T10:14:36;2.70;99.90
7413;DHT22;3748;48.136;11.538;2023-02-25T10:17:11;2.60;99.90
7413;DHT22;3748;48.136;11.538;2023-02-25T10:19:56;2.60;99.90
7413;DHT22;3748;48.136;11.538;2023-02-25T10:22:39;2.70;99.90
7413;DHT22;3748;48.136;11.538;2023-02-25T10:25:14;2.60;99.90
7413;DHT22;3748;48.136;11.538;2023-02-25T10:27:47;2.70;99.90
7413;DHT22;3748;48.136;11.538;2023-02-25T10:32:50;2.90;99.90
7413;DHT22;3748;48.136;11.538;2023-02-25T10:35:25;2.80;99.90
7413;DHT22;3748;48.136;11.538;2023-02-25T10:40:24;2.40;99.90
7413;DHT22;3748;48.136;11.538;2023-02-25T10:42:58;3.00;99.90
7413;DHT22;3748;48.136;11.538;2023-02-25T10:45:28;2.90;99.90
7413;DHT22;3748;48.136;11.538;2023-02-25T10:48:02;3.00;99.90
7413;DHT22;3748;48.136;11.538;2023-02-25T10:50:31;3.20;99.90
7413;DHT22;3748;48.136;11.538;2023-02-25T10:53:00;3.20;99.90
7413;DHT22;3748;48.136;11.538;2023-02-25T10:55:44;3.10;99.90
7413;DHT22;3748;48.136;11.538;2023-02-25T10:58:29;3.10;99.90
7413;DHT22;3748;48.136;11.538;2023-02-25T11:01:00;3.10;99.90
7413;DHT22;3748;48.136;11.538;2023-02-25T11:03:30;3.10;99.90
7413;DHT22;3748;48.136;11.538;2023-02-25T11:06:10;3.20;99.90
7413;DHT22;3748;48.136;11.538;2023-02-25T11:08:38;3.10;99.90
7413;DHT22;3748;48.136;11.538;2023-02-25T11:11:18;3.20;99.90
7413;DHT22;3748;48.136;11.538;2023-02-25T11:13:59;3.30;99.90
7413;DHT22;3748;48.136;11.538;2023-02-25T11:16:28;3.30;99.90
7413;DHT22;3748;48.136;11.538;2023-02-25T11:18:59;3.40;99.90
7413;DHT22;3748;48.136;11.538;2023-02-25T11:21:32;3.50;99.90
7413;DHT22;3748;48.136;11.538;2023-02-25T11:24:01;3.60;99.90
7413;DHT22;3748;48.136;11.538;2023-02-25T11:26:33;3.70;99.90
7413;DHT22;3748;48.136;11.538;2023-02-25T11:29:06;3.90;99.90
7413;DHT22;3748;48.136;11.538;2023-02-25T11:31:39;3.70;99.90
7413;DHT22;3748;48.136;11.538;2023-02-25T11:34:18;3.70;99.90
7413;DHT22;3748;48.136;11.538;2023-02-25T11:36:50;3.70;99.90
7413;DHT22;3748;48.136;11.538;2023-02-25T11:39:22;3.80;99.90
7413;DHT22;3748;48.136;11.538;2023-02-25T11:41:56;3.70;99.90
7413;DHT22;3748;48.136;11.538;2023-02-25T11:47:27;4.40;99.90
7413;DHT22;3748;48.136;11.538;2023-02-25T11:50:13;3.90;99.90
7413;DHT22;3748;48.136;11.538;2023-02-25T11:52:45;3.50;99.90
7413;DHT22;3748;48.136;11.538;2023-02-25T11:55:35;3.90;99.90
7413;DHT22;3748;48.136;11.538;2023-02-25T11:58:15;3.60;99.90
7413;DHT22;3748;48.136;11.538;2023-02-25T13:15:23;5.10;99.90
7413;DHT22;3748;48.136;11.538;2023-02-25T13:26:16;6.90;99.90
7413;DHT22;3748;48.136;11.538;2023-02-25T13:29:14;7.30;99.90
7413;DHT22;3748;48.136;11.538;2023-02-25T13:31:50;7.40;99.90
7413;DHT22;3748;48.136;11.538;2023-02-25T13:45:45;5.00;99.90
7413;DHT22;3748;48.136;11.538;2023-02-25T13:48:41;5.20;99.90
7413;DHT22;3748;48.136;11.538;2023-02-25T13:54:02;5.50;99.90
7413;DHT22;3748;48.136;11.538;2023-02-25T13:56:49;5.20;99.90
7413;DHT22;3748;48.136;11.538;2023-02-25T14:05:26;4.50;99.90
7413;DHT22;3748;48.136;11.538;2023-02-25T14:08:04;4.40;99.90
7413;DHT22;3748;48.136;11.538;2023-02-25T14:10:41;4.20;99.90
7413;DHT22;3748;48.136;11.538;2023-02-25T14:13:22;4.20;99.90
7413;DHT22;3748;48.136;11.538;2023-02-25T14:16:00;4.30;99.90
7413;DHT22;3748;48.136;11.538;2023-02-25T14:18:49;4.30;99.90
7413;DHT22;3748;48.136;11.538;2023-02-25T14:21:38;4.30;99.90
7413;DHT22;3748;48.136;11.538;2023-02-25T14:24:12;4.20;99.90
7413;DHT22;3748;48.136;11.538;2023-02-25T14:26:47;4.20;99.90
7413;DHT22;3748;48.136;11.538;2023-02-25T14:29:23;4.10;99.90
7413;DHT22;3748;48.136;11.538;2023-02-25T14:32:08;4.10;99.90
7413;DHT22;3748;48.136;11.538;2023-02-25T14:34:46;4.10;99.90
7413;DHT22;3748;48.136;11.538;2023-02-25T14:37:27;4.00;99.90
7413;DHT22;3748;48.136;11.538;2023-02-25T14:40:16;4.00;99.90
7413;DHT22;3748;48.136;11.538;2023-02-25T14:45:37;4.00;99.90
7413;DHT22;3748;48.136;11.538;2023-02-25T14:48:10;4.10;99.90
7413;DHT22;3748;48.136;11.538;2023-02-25T14:50:45;4.10;99.90
7413;DHT22;3748;48.136;11.538;2023-02-25T14:59:45;4.00;99.90
7413;DHT22;3748;48.136;11.538;2023-02-25T15:02:26;3.90;99.90
7413;DHT22;3748;48.136;11.538;2023-02-25T15:05:17;3.60;99.90
7413;DHT22;3748;48.136;11.538;2023-02-25T15:10:42;3.50;99.90
7413;DHT22;3748;48.136;11.538;2023-02-25T15:16:43;3.50;99.90
7413;DHT22;3748;48.136;11.538;2023-02-25T15:19:36;3.50;99.90
7413;DHT22;3748;48.136;11.538;2023-02-25T15:22:20;3.50;99.90
7413;DHT22;3748;48.136;11.538;2023-02-25T15:24:48;3.60;99.90
7413;DHT22;3748;48.136;11.538;2023-02-25T15:27:49;3.60;99.90
7413;DHT22;3748;48.136;11.538;2023-02-25T15:30:18;3.60;99.90
7413;DHT22;3748;48.136;11.538;2023-02-25T15:33:12;3.60;99.90
7413;DHT22;3748;48.136;11.538;2023-02-25T15:35:59;3.60;99.90
7413;DHT22;3748;48.136;11.538;2023-02-25T15:38:41;3.50;99.90
7413;DHT22;3748;48.136;11.538;2023-02-25T15:41:44;3.60;99.90
7413;DHT22;3748;48.136;11.538;2023-02-25T15:44:37;3.60;99.90
7413;DHT22;3748;48.136;11.538;2023-02-25T15:47:17;3.50;99.90
7413;DHT22;3748;48.136;11.538;2023-02-25T15:49:46;3.50;99.90
7413;DHT22;3748;48.136;11.538;2023-02-25T15:52:50;3.50;99.90
7413;DHT22;3748;48.136;11.538;2023-02-25T15:55:37;3.40;99.90
7413;DHT22;3748;48.136;11.538;2023-02-25T15:58:42;3.40;99.90
7413;DHT22;3748;48.136;11.538;2023-02-25T16:01:36;3.40;99.90
7413;DHT22;3748;48.136;11.538;2023-02-25T16:04:44;3.50;99.90
7413;DHT22;3748;48.136;11.538;2023-02-25T16:07:14;3.40;99.90
7413;DHT22;3748;48.136;11.538;2023-02-25T16:09:45;3.40;99.90
7413;DHT22;3748;48.136;11.538;2023-02-25T16:12:15;3.40;99.90
7413;DHT22;3748;48.136;11.538;2023-02-25T16:14:43;3.40;99.90
7413;DHT22;3748;48.136;11.538;2023-02-25T16:17:15;3.40;99.90
7413;DHT22;3748;48.136;11.538;2023-02-25T16:19:46;3.30;99.90
7413;DHT22;3748;48.136;11.538;2023-02-25T16:22:18;3.40;99.90
7413;DHT22;3748;48.136;11.538;2023-02-25T16:24:48;3.30;99.90
7413;DHT22;3748;48.136;11.538;2023-02-25T16:27:27;3.40;99.90
7413;DHT22;3748;48.136;11.538;2023-02-25T16:30:02;3.30;99.90
7413;DHT22;3748;48.136;11.538;2023-02-25T16:32:39;3.30;99.90
7413;DHT22;3748;48.136;11.538;2023-02-25T16:35:14;3.30;99.90
7413;DHT22;3748;48.136;11.538;2023-02-25T16:37:49;3.30;99.90
7413;DHT22;3748;48.136;11.538;2023-02-25T16:40:23;3.30;99.90
7413;DHT22;3748;48.136;11.538;2023-02-25T16:42:51;3.30;99.90
7413;DHT22;3748;48.136;11.538;2023-02-25T16:45:24;3.30;99.90
7413;DHT22;3748;48.136;11.538;2023-02-25T16:47:56;3.20;99.90
7413;DHT22;3748;48.136;11.538;2023-02-25T16:50:26;3.30;99.90
7413;DHT22;3748;48.136;11.538;2023-02-25T16:52:55;3.30;99.90
7413;DHT22;3748;48.136;11.538;2023-02-25T16:55:24;3.30;99.90
7413;DHT22;3748;48.136;11.538;2023-02-25T16:58:05;3.30;99.90
7413;DHT22;3748;48.136;11.538;2023-02-25T17:00:33;3.20;99.90
7413;DHT22;3748;48.136;11.538;2023-02-25T17:03:03;3.10;99.90
7413;DHT22;3748;48.136;11.538;2023-02-25T17:05:34;3.20;99.90
7413;DHT22;3748;48.136;11.538;2023-02-25T17:08:05;3.00;99.90
7413;DHT22;3748;48.136;11.538;2023-02-25T17:10:42;3.00;99.90
7413;DHT22;3748;48.136;11.538;2023-02-25T17:13:15;3.00;99.90
7413;DHT22;3748;48.136;11.538;2023-02-25T17:15:42;3.00;99.90
7413;DHT22;3748;48.136;11.538;2023-02-25T17:18:16;3.00;99.90
7413;DHT22;3748;48.136;11.538;2023-02-25T17:20:46;3.00;99.90
7413;DHT22;3748;48.136;11.538;2023-02-25T17:23:14;3.00;99.90
7413;DHT22;3748;48.136;11.538;2023-02-25T17:25:42;2.90;99.90
7413;DHT22;3748;48.136;11.538;2023-02-25T17:28:18;2.90;99.90
7413;DHT22;3748;48.136;11.538;2023-02-25T17:30:46;2.90;99.90
7413;DHT22;3748;48.136;11.538;2023-02-25T17:33:21;3.00;99.90
7413;DHT22;3748;48.136;11.538;2023-02-25T17:35:51;3.00;99.90
7413;DHT22;3748;48.136;11.538;2023-02-25T17:38:20;3.10;99.90
7413;DHT22;3748;48.136;11.538;2023-02-25T17:40:49;3.10;99.90
7413;DHT22;3748;48.136;11.538;2023-02-25T17:43:20;3.00;99.90
7413;DHT22;3748;48.136;11.538;2023-02-25T17:45:50;2.90;99.90
7413;DHT22;3748;48.136;11.538;2023-02-25T17:48:19;2.90;99.90
7413;DHT22;3748;48.136;11.538;2023-02-25T17:50:54;2.90;99.90
7413;DHT22;3748;48.136;11.538;2023-02-25T17:53:31;3.00;99.90
7413;DHT22;3748;48.136;11.538;2023-02-25T17:56:14;2.60;99.90
7413;DHT22;3748;48.136;11.538;2023-02-25T17:58:47;2.50;99.90
7413;DHT22;3748;48.136;11.538;2023-02-25T18:03:53;1.70;99.90
7413;DHT22;3748;48.136;11.538;2023-02-25T18:08:55;1.40;99.90
7413;DHT22;3748;48.136;11.538;2023-02-25T18:11:26;1.50;99.90
7413;DHT22;3748;48.136;11.538;2023-02-25T18:13:54;1.30;99.90
7413;DHT22;3748;48.136;11.538;2023-02-25T22:46:19;-0.20;99.90
7413;DHT22;3748;48.136;11.538;2023-02-25T23:26:04;-0.20;99.90
7413;DHT22;3748;48.136;11.538;2023-02-25T23:48:12;-0.20;99.90
